createdAt,value
2019-02-10T00:00:31.380Z,2.20
2019-02-10T00:01:52.939Z,1.30
2019-02-10T00:02:56.977Z,3.77
2019-02-10T00:04:01.047Z,3.23
2019-02-10T00:05:05.196Z,1.63
2019-02-10T00:06:09.228Z,2.63
2019-02-10T00:07:13.273Z,1.77
2019-02-10T00:08:17.336Z,1.20
2019-02-10T00:09:21.345Z,1.30
2019-02-10T00:10:25.476Z,3.40
2019-02-10T00:11:29.504Z,1.50
2019-02-10T00:12:33.606Z,2.10
2019-02-10T00:13:38.774Z,2.93
2019-02-10T00:14:42.853Z,1.10
2019-02-10T00:15:46.926Z,1.67
2019-02-10T00:16:50.949Z,1.70
2019-02-10T00:17:55.033Z,1.30
2019-02-10T00:18:59.051Z,1.57
2019-02-10T00:20:03.100Z,2.03
2019-02-10T00:21:07.218Z,1.83
2019-02-10T00:22:11.257Z,1.30
2019-02-10T00:23:15.342Z,4.33
2019-02-10T00:24:19.360Z,1.37
2019-02-10T00:25:23.397Z,1.87
2019-02-10T00:26:27.388Z,1.33
2019-02-10T00:27:31.382Z,1.70
2019-02-10T00:28:35.509Z,2.30
2019-02-10T00:29:39.541Z,1.20
2019-02-10T00:30:43.558Z,1.23
2019-02-10T00:31:47.590Z,2.47
2019-02-10T00:32:51.588Z,1.30
2019-02-10T00:33:55.611Z,1.53
2019-02-10T00:34:59.650Z,1.73
2019-02-10T00:36:03.674Z,3.73
2019-02-10T00:37:07.656Z,4.10
2019-02-10T00:38:11.677Z,1.30
2019-02-10T00:39:15.725Z,2.23
2019-02-10T00:40:19.732Z,1.53
2019-02-10T00:41:23.738Z,2.30
2019-02-10T00:42:27.749Z,1.23
2019-02-10T00:43:32.007Z,1.57
2019-02-10T00:44:36.060Z,2.67
2019-02-10T00:45:40.093Z,3.40
2019-02-10T00:46:44.077Z,1.40
2019-02-10T00:47:48.166Z,2.10
2019-02-10T00:48:52.179Z,2.87
2019-02-10T00:49:56.264Z,3.93
2019-02-10T00:51:00.297Z,1.20
2019-02-10T00:52:04.347Z,1.10
2019-02-10T00:53:08.430Z,1.30
2019-02-10T00:54:15.263Z,2.30
2019-02-10T00:55:19.308Z,2.40
2019-02-10T00:56:23.361Z,3.43
2019-02-10T00:57:27.375Z,1.70
2019-02-10T00:58:31.410Z,1.67
2019-02-10T00:59:35.439Z,0.97
2019-02-10T01:00:39.575Z,2.80
2019-02-10T01:01:43.639Z,1.17
2019-02-10T01:02:47.629Z,4.13
2019-02-10T01:03:51.645Z,2.07
2019-02-10T01:04:55.704Z,0.90
2019-02-10T01:05:59.759Z,1.03
2019-02-10T01:07:03.745Z,2.43
2019-02-10T01:08:07.794Z,1.67
2019-02-10T01:09:11.858Z,3.70
2019-02-10T01:10:15.974Z,2.07
2019-02-10T01:11:20.033Z,3.30
2019-02-10T01:12:24.094Z,3.07
2019-02-10T01:13:28.116Z,1.20
2019-02-10T01:14:32.227Z,1.10
2019-02-10T01:15:36.299Z,3.03
2019-02-10T01:16:40.485Z,3.37
2019-02-10T01:17:44.591Z,1.77
2019-02-10T01:18:59.664Z,1.20
2019-02-10T01:20:03.826Z,3.00
2019-02-10T01:21:07.891Z,3.77
2019-02-10T01:22:18.437Z,2.13
2019-02-10T01:23:22.448Z,3.90
2019-02-10T01:24:26.826Z,3.47
2019-02-10T01:25:30.855Z,3.13
2019-02-10T01:26:34.866Z,1.87
2019-02-10T01:27:38.994Z,1.03
2019-02-10T01:28:43.076Z,3.20
2019-02-10T01:29:47.159Z,1.80
2019-02-10T01:30:51.196Z,1.13
2019-02-10T01:31:55.214Z,1.37
2019-02-10T01:32:59.365Z,1.83
2019-02-10T01:34:03.452Z,1.40
2019-02-10T01:35:07.602Z,3.70
2019-02-10T01:36:11.740Z,2.57
2019-02-10T01:37:15.756Z,2.20
2019-02-10T01:38:19.830Z,4.23
2019-02-10T01:39:24.049Z,4.70
2019-02-10T01:40:28.069Z,2.17
2019-02-10T01:41:32.157Z,3.33
2019-02-10T01:42:36.194Z,2.20
2019-02-10T01:43:40.317Z,2.83
2019-02-10T01:44:44.365Z,1.10
2019-02-10T01:45:48.395Z,1.40
2019-02-10T01:46:52.448Z,1.20
2019-02-10T01:47:56.457Z,1.27
2019-02-10T01:49:00.543Z,5.77
2019-02-10T01:50:05.797Z,1.43
2019-02-10T01:51:09.835Z,6.03
2019-02-10T01:52:13.836Z,2.03
2019-02-10T01:53:17.869Z,2.30
2019-02-10T01:54:21.900Z,2.10
2019-02-10T01:55:25.902Z,1.50
2019-02-10T01:56:29.906Z,2.47
2019-02-10T01:57:33.935Z,1.10
2019-02-10T01:58:38.023Z,1.13
2019-02-10T01:59:42.072Z,3.60
2019-02-10T02:00:46.109Z,1.70
2019-02-10T02:01:50.177Z,2.03
2019-02-10T02:02:54.257Z,2.20
2019-02-10T02:03:58.319Z,3.43
2019-02-10T02:05:02.443Z,2.90
2019-02-10T02:06:06.446Z,2.23
2019-02-10T02:07:10.539Z,1.03
2019-02-10T02:08:14.617Z,1.23
2019-02-10T02:09:18.700Z,2.70
2019-02-10T02:10:22.863Z,2.37
2019-02-10T02:11:26.829Z,3.30
2019-02-10T02:12:30.854Z,3.93
2019-02-10T02:13:36.441Z,3.87
2019-02-10T02:14:38.937Z,4.63
2019-02-10T02:15:42.976Z,1.37
2019-02-10T02:16:46.986Z,2.20
2019-02-10T02:17:51.041Z,1.40
2019-02-10T02:18:55.059Z,1.00
2019-02-10T02:19:59.068Z,2.43
2019-02-10T02:21:03.244Z,4.17
2019-02-10T02:22:07.282Z,1.60
2019-02-10T02:23:11.404Z,4.10
2019-02-10T02:24:15.421Z,1.83
2019-02-10T02:25:19.490Z,3.00
2019-02-10T02:26:26.425Z,5.40
2019-02-10T02:27:30.452Z,2.33
2019-02-10T02:28:34.463Z,5.13
2019-02-10T02:29:38.541Z,3.50
2019-02-10T02:30:42.516Z,1.70
2019-02-10T02:31:46.577Z,1.60
2019-02-10T02:32:50.580Z,2.30
2019-02-10T02:33:54.662Z,2.03
2019-02-10T02:34:58.646Z,3.73
2019-02-10T02:36:02.693Z,3.37
2019-02-10T02:37:08.298Z,3.07
2019-02-10T02:38:10.817Z,3.43
2019-02-10T02:39:14.890Z,1.67
2019-02-10T02:40:18.906Z,2.60
2019-02-10T02:41:22.926Z,1.77
2019-02-10T02:42:26.972Z,0.83
2019-02-10T02:43:30.971Z,2.57
2019-02-10T02:44:34.961Z,2.00
2019-02-10T02:45:38.959Z,0.70
2019-02-10T02:46:43.015Z,1.13
2019-02-10T02:47:47.028Z,1.73
2019-02-10T02:48:51.020Z,1.77
2019-02-10T02:49:55.085Z,2.63
2019-02-10T02:51:00.852Z,4.53
2019-02-10T02:52:03.182Z,1.80
2019-02-10T02:53:07.181Z,0.83
2019-02-10T02:54:11.157Z,1.10
2019-02-10T02:55:15.162Z,1.07
2019-02-10T02:56:19.211Z,1.57
2019-02-10T02:57:23.279Z,2.20
2019-02-10T02:58:27.253Z,1.60
2019-02-10T02:59:31.267Z,2.03
2019-02-10T03:00:35.401Z,0.70
2019-02-10T03:01:39.438Z,0.50
2019-02-10T03:02:43.418Z,1.83
2019-02-10T03:03:47.407Z,0.77
2019-02-10T03:04:51.474Z,0.87
2019-02-10T03:05:55.499Z,1.70
2019-02-10T03:06:59.515Z,0.77
2019-02-10T03:08:03.550Z,1.63
2019-02-10T03:09:07.604Z,1.23
2019-02-10T03:10:11.661Z,2.13
2019-02-10T03:11:15.661Z,0.60
2019-02-10T03:12:19.680Z,0.80
2019-02-10T03:13:23.753Z,1.13
2019-02-10T03:14:27.808Z,1.63
2019-02-10T03:15:31.886Z,0.93
2019-02-10T03:16:35.878Z,0.67
2019-02-10T03:17:39.876Z,1.23
2019-02-10T03:18:51.930Z,0.60
2019-02-10T03:19:48.004Z,2.20
2019-02-10T03:20:51.991Z,0.47
2019-02-10T03:21:55.988Z,2.33
2019-02-10T03:22:59.995Z,0.60
2019-02-10T03:24:04.143Z,0.40
2019-02-10T03:25:08.198Z,2.00
2019-02-10T03:26:12.239Z,1.60
2019-02-10T03:27:16.306Z,2.17
2019-02-10T03:28:20.356Z,0.63
2019-02-10T03:29:24.412Z,1.50
2019-02-10T03:30:28.448Z,0.67
2019-02-10T03:31:32.458Z,2.10
2019-02-10T03:32:36.464Z,0.60
2019-02-10T03:33:40.478Z,0.77
2019-02-10T03:34:44.554Z,1.27
2019-02-10T03:35:48.556Z,1.43
2019-02-10T03:36:52.560Z,1.63
2019-02-10T03:37:56.603Z,1.13
2019-02-10T03:39:00.578Z,1.47
2019-02-10T03:40:05.100Z,1.03
2019-02-10T03:41:09.163Z,1.47
2019-02-10T03:42:13.129Z,1.93
2019-02-10T03:43:17.128Z,2.60
2019-02-10T03:44:21.191Z,1.23
2019-02-10T03:45:25.293Z,0.50
2019-02-10T03:46:30.327Z,2.53
2019-02-10T03:47:34.398Z,0.40
2019-02-10T03:48:38.393Z,1.27
2019-02-10T03:49:42.412Z,0.30
2019-02-10T03:50:46.528Z,0.50
2019-02-10T03:51:50.526Z,1.87
2019-02-10T03:52:54.538Z,0.30
2019-02-10T03:53:58.566Z,1.10
2019-02-10T03:55:02.662Z,0.80
2019-02-10T03:56:06.745Z,1.50
2019-02-10T03:57:10.812Z,0.60
2019-02-10T03:58:14.912Z,1.23
2019-02-10T03:59:19.037Z,3.13
2019-02-10T04:00:23.062Z,2.17
2019-02-10T04:01:27.203Z,0.33
2019-02-10T04:02:31.211Z,1.07
2019-02-10T04:03:35.235Z,0.73
2019-02-10T04:04:39.248Z,0.50
2019-02-10T04:05:43.277Z,0.67
2019-02-10T04:06:47.288Z,1.97
2019-02-10T04:07:51.297Z,0.57
2019-02-10T04:08:55.353Z,1.30
2019-02-10T04:09:59.336Z,0.47
2019-02-10T04:11:03.344Z,1.23
2019-02-10T04:12:07.375Z,0.80
2019-02-10T04:13:11.366Z,0.50
2019-02-10T04:14:15.424Z,0.60
2019-02-10T04:15:19.435Z,1.40
2019-02-10T04:16:23.501Z,2.83
2019-02-10T04:17:27.520Z,0.87
2019-02-10T04:18:31.527Z,0.37
2019-02-10T04:19:35.569Z,1.40
2019-02-10T04:20:39.589Z,0.50
2019-02-10T04:21:43.574Z,0.57
2019-02-10T04:22:47.597Z,0.53
2019-02-10T04:23:51.582Z,1.17
2019-02-10T04:24:55.552Z,0.77
2019-02-10T04:25:59.568Z,1.00
2019-02-10T04:27:03.582Z,2.23
2019-02-10T04:28:07.634Z,0.47
2019-02-10T04:29:11.643Z,1.13
2019-02-10T04:30:15.640Z,1.67
2019-02-10T04:31:19.642Z,2.03
2019-02-10T04:32:23.642Z,2.37
2019-02-10T04:33:27.707Z,0.50
2019-02-10T04:34:31.700Z,0.50
2019-02-10T04:35:35.700Z,2.03
2019-02-10T04:36:39.680Z,1.47
2019-02-10T04:37:46.170Z,1.23
2019-02-10T04:38:47.764Z,2.03
2019-02-10T04:39:51.789Z,2.83
2019-02-10T04:40:55.797Z,2.70
2019-02-10T04:41:59.793Z,1.90
2019-02-10T04:43:03.822Z,1.83
2019-02-10T04:44:07.870Z,2.40
2019-02-10T04:45:11.888Z,2.50
2019-02-10T04:46:15.899Z,0.60
2019-02-10T04:47:19.927Z,3.83
2019-02-10T04:48:23.924Z,1.87
2019-02-10T04:49:27.965Z,1.97
2019-02-10T04:50:31.953Z,2.03
2019-02-10T04:51:35.947Z,2.93
2019-02-10T04:52:39.975Z,1.10
2019-02-10T04:53:43.960Z,4.80
2019-02-10T04:54:47.968Z,3.03
2019-02-10T04:56:24.829Z,3.60
2019-02-10T04:57:28.810Z,6.53
2019-02-10T04:58:32.899Z,4.43
2019-02-10T04:59:36.910Z,2.23
2019-02-10T05:00:40.897Z,1.60
2019-02-10T05:01:44.915Z,3.83
2019-02-10T05:02:48.944Z,3.87
2019-02-10T05:03:52.963Z,4.10
2019-02-10T05:04:57.005Z,3.37
2019-02-10T05:06:01.049Z,5.80
2019-02-10T05:07:05.249Z,5.47
2019-02-10T05:08:09.236Z,4.57
2019-02-10T05:09:13.258Z,5.07
2019-02-10T05:10:17.359Z,4.17
2019-02-10T05:11:21.349Z,8.90
2019-02-10T05:12:25.361Z,5.33
2019-02-10T05:13:29.413Z,8.87
2019-02-10T05:14:33.390Z,3.43
2019-02-10T05:15:37.514Z,5.37
2019-02-10T05:16:41.595Z,9.03
2019-02-10T05:17:45.609Z,4.90
2019-02-10T05:18:49.677Z,4.37
2019-02-10T05:19:53.722Z,5.70
2019-02-10T05:20:57.966Z,7.90
2019-02-10T05:22:02.104Z,6.77
2019-02-10T05:23:06.253Z,15.97
2019-02-10T05:24:10.438Z,6.73
2019-02-10T05:25:14.674Z,14.23
2019-02-10T05:26:18.880Z,10.33
2019-02-10T05:27:23.065Z,11.03
2019-02-10T05:28:27.275Z,17.47
2019-02-10T05:29:31.641Z,13.03
2019-02-10T05:30:35.831Z,12.40
2019-02-10T05:31:39.863Z,6.33
2019-02-10T05:32:43.884Z,12.20
2019-02-10T05:33:47.914Z,14.77
2019-02-10T05:34:52.054Z,11.03
2019-02-10T05:35:56.312Z,12.13
2019-02-10T05:37:00.391Z,12.60
2019-02-10T05:38:04.741Z,10.47
2019-02-10T05:39:08.516Z,10.37
2019-02-10T05:40:12.531Z,14.03
2019-02-10T05:41:16.556Z,11.30
2019-02-10T05:42:20.714Z,12.00
2019-02-10T05:43:24.760Z,15.70
2019-02-10T05:44:28.797Z,14.27
2019-02-10T05:45:32.847Z,17.17
2019-02-10T05:46:36.870Z,15.87
2019-02-10T05:47:40.978Z,11.83
2019-02-10T05:48:45.043Z,17.87
2019-02-10T05:49:49.053Z,13.23
2019-02-10T05:50:53.216Z,14.20
2019-02-10T05:51:57.241Z,18.70
2019-02-10T05:53:01.217Z,18.60
2019-02-10T05:54:05.295Z,23.37
2019-02-10T05:55:09.411Z,14.67
2019-02-10T05:56:13.457Z,21.77
2019-02-10T05:57:17.477Z,14.27
2019-02-10T05:58:21.571Z,21.03
2019-02-10T05:59:25.614Z,17.53
2019-02-10T06:00:29.727Z,23.90
2019-02-10T06:02:11.980Z,22.80
2019-02-10T06:03:16.082Z,24.87
2019-02-10T06:04:20.141Z,16.97
2019-02-10T06:05:26.345Z,19.53
2019-02-10T06:06:30.457Z,19.20
2019-02-10T06:07:34.537Z,20.23
2019-02-10T06:08:38.568Z,30.33
2019-02-10T06:09:42.581Z,22.03
2019-02-10T06:10:46.577Z,20.10
2019-02-10T06:11:50.662Z,28.03
2019-02-10T06:12:54.874Z,20.40
2019-02-10T06:13:58.894Z,20.63
2019-02-10T06:15:02.928Z,17.23
2019-02-10T06:16:07.025Z,23.27
2019-02-10T06:17:11.025Z,20.80
2019-02-10T06:18:15.087Z,25.00
2019-02-10T06:19:19.114Z,20.20
2019-02-10T06:20:23.205Z,38.30
2019-02-10T06:21:27.258Z,15.40
2019-02-10T06:22:31.265Z,24.03
2019-02-10T06:23:35.373Z,27.60
2019-02-10T06:24:39.404Z,17.90
2019-02-10T06:25:43.533Z,23.37
2019-02-10T06:26:47.693Z,21.80
2019-02-10T06:27:51.762Z,21.57
2019-02-10T06:28:56.031Z,19.50
2019-02-10T06:30:00.066Z,27.73
2019-02-10T06:31:04.206Z,23.47
2019-02-10T06:32:08.318Z,20.17
2019-02-10T06:33:12.333Z,20.20
2019-02-10T06:34:16.399Z,19.80
2019-02-10T06:35:20.481Z,23.80
2019-02-10T06:36:24.557Z,30.33
2019-02-10T06:37:28.614Z,24.43
2019-02-10T06:38:33.159Z,26.90
2019-02-10T06:39:37.284Z,31.57
2019-02-10T06:40:41.368Z,29.83
2019-02-10T06:41:45.373Z,24.53
2019-02-10T06:42:49.488Z,29.60
2019-02-10T06:43:53.610Z,21.23
2019-02-10T06:44:57.706Z,28.50
2019-02-10T06:46:01.888Z,17.03
2019-02-10T06:47:05.996Z,18.00
2019-02-10T06:48:09.985Z,23.57
2019-02-10T06:49:14.049Z,32.17
2019-02-10T06:50:18.204Z,29.23
2019-02-10T06:51:22.316Z,25.17
2019-02-10T06:52:26.341Z,25.47
2019-02-10T06:53:30.408Z,20.50
2019-02-10T06:54:34.596Z,27.30
2019-02-10T06:55:38.779Z,27.33
2019-02-10T06:56:42.942Z,23.53
2019-02-10T06:57:47.124Z,20.63
2019-02-10T06:58:51.119Z,24.77
2019-02-10T07:00:03.020Z,23.47
2019-02-10T07:01:14.192Z,28.43
2019-02-10T07:02:23.303Z,27.47
2019-02-10T07:03:40.805Z,19.60
2019-02-10T07:04:44.865Z,23.33
2019-02-10T07:05:48.869Z,26.30
2019-02-10T07:06:52.887Z,28.57
2019-02-10T07:07:56.876Z,30.57
2019-02-10T07:09:00.893Z,25.00
2019-02-10T07:10:05.192Z,26.17
2019-02-10T07:11:09.249Z,23.90
2019-02-10T07:12:24.158Z,25.17
2019-02-10T07:13:32.535Z,21.00
2019-02-10T07:14:38.946Z,18.30
2019-02-10T07:15:53.894Z,26.67
2019-02-10T07:17:21.982Z,23.03
2019-02-10T07:18:36.813Z,25.27
2019-02-10T07:19:51.669Z,26.30
2019-02-10T07:20:55.737Z,25.57
2019-02-10T07:21:59.763Z,19.37
2019-02-10T07:24:11.014Z,33.70
2019-02-10T07:25:55.390Z,24.40
2019-02-10T07:27:03.773Z,29.37
2019-02-10T07:29:20.355Z,26.47
2019-02-10T07:30:36.784Z,26.57
2019-02-10T07:31:49.769Z,21.70
2019-02-10T07:32:53.799Z,21.67
2019-02-10T07:34:15.306Z,25.73
2019-02-10T07:35:29.853Z,27.67
2019-02-10T07:36:48.826Z,23.17
2019-02-10T07:38:05.073Z,25.60
2019-02-10T07:39:23.876Z,21.27
2019-02-10T07:40:40.725Z,23.47
2019-02-10T07:46:04.474Z,26.93
2019-02-10T07:49:21.905Z,17.50
2019-02-10T07:52:39.400Z,19.67
2019-02-10T07:54:07.116Z,29.23
2019-02-10T07:56:25.625Z,27.80
2019-02-10T07:58:43.316Z,26.60
2019-02-10T08:00:07.332Z,23.30
2019-02-10T08:02:23.752Z,18.90
2019-02-10T08:04:11.025Z,21.93
2019-02-10T08:05:29.133Z,20.97
2019-02-10T08:08:50.532Z,24.80
2019-02-10T08:10:03.262Z,19.80
2019-02-10T08:11:23.115Z,20.80
2019-02-10T08:12:38.824Z,35.33
2019-02-10T08:14:53.346Z,25.20
2019-02-10T08:16:27.239Z,24.80
2019-02-10T08:17:54.618Z,26.77
2019-02-10T08:21:23.200Z,21.97
2019-02-10T08:22:44.110Z,20.10
2019-02-10T08:24:00.409Z,22.90
2019-02-10T08:25:19.969Z,23.30
2019-02-10T08:30:40.044Z,27.50
2019-02-10T08:32:54.959Z,17.77
2019-02-10T08:34:23.073Z,20.17
2019-02-10T08:35:41.724Z,26.83
2019-02-10T08:37:03.418Z,18.37
2019-02-10T08:38:28.504Z,19.63
2019-02-10T08:39:41.802Z,19.20
2019-02-10T08:40:55.630Z,24.27
2019-02-10T08:42:08.160Z,19.87
2019-02-10T08:44:40.293Z,20.10
2019-02-10T08:46:00.245Z,20.37
2019-02-10T08:47:44.104Z,18.13
2019-02-10T08:49:04.316Z,25.63
2019-02-10T08:52:21.573Z,23.33
2019-02-10T08:53:31.388Z,21.83
2019-02-10T08:54:35.411Z,26.67
2019-02-10T08:55:39.499Z,16.33
2019-02-10T08:56:43.659Z,17.80
2019-02-10T08:57:47.848Z,22.20
2019-02-10T08:58:51.916Z,24.07
2019-02-10T08:59:55.925Z,21.27
2019-02-10T09:00:59.948Z,19.03
2019-02-10T09:02:03.954Z,20.37
2019-02-10T09:03:08.037Z,19.53
2019-02-10T09:04:12.043Z,22.30
2019-02-10T09:05:16.090Z,20.57
2019-02-10T09:06:20.183Z,29.13
2019-02-10T09:07:24.235Z,19.70
2019-02-10T09:08:28.330Z,16.93
2019-02-10T09:09:32.330Z,20.30
2019-02-10T09:10:36.443Z,28.70
2019-02-10T09:11:40.542Z,19.50
2019-02-10T09:12:44.569Z,17.33
2019-02-10T09:13:48.738Z,19.23
2019-02-10T09:14:52.795Z,19.63
2019-02-10T09:15:56.905Z,21.60
2019-02-10T09:17:00.957Z,14.53
2019-02-10T09:18:05.062Z,23.73
2019-02-10T09:19:09.286Z,18.27
2019-02-10T09:20:13.454Z,16.00
2019-02-10T09:21:17.504Z,13.53
2019-02-10T09:22:21.583Z,13.40
2019-02-10T09:23:25.684Z,19.60
2019-02-10T09:24:29.816Z,18.70
2019-02-10T09:25:33.830Z,21.37
2019-02-10T09:26:38.526Z,25.53
2019-02-10T09:27:42.573Z,17.30
2019-02-10T09:28:46.674Z,18.17
2019-02-10T09:29:50.850Z,13.07
2019-02-10T09:30:54.901Z,18.03
2019-02-10T09:31:58.994Z,22.33
2019-02-10T09:33:03.084Z,19.57
2019-02-10T09:34:07.141Z,20.73
2019-02-10T09:35:11.421Z,21.40
2019-02-10T09:36:15.545Z,17.27
2019-02-10T09:37:19.786Z,22.57
2019-02-10T09:38:23.847Z,21.00
2019-02-10T09:39:27.860Z,18.17
2019-02-10T09:40:32.021Z,19.87
2019-02-10T09:41:36.090Z,26.97
2019-02-10T09:42:40.181Z,16.07
2019-02-10T09:43:44.308Z,14.67
2019-02-10T09:44:48.313Z,18.20
2019-02-10T09:45:52.433Z,15.00
2019-02-10T09:46:56.507Z,19.00
2019-02-10T09:48:00.541Z,19.67
2019-02-10T09:49:04.586Z,13.50
2019-02-10T09:50:11.616Z,20.13
2019-02-10T09:51:15.684Z,18.17
2019-02-10T09:52:19.729Z,21.83
2019-02-10T09:53:23.737Z,20.50
2019-02-10T09:54:27.811Z,14.47
2019-02-10T09:55:31.829Z,17.10
2019-02-10T09:56:35.881Z,19.13
2019-02-10T09:57:39.959Z,14.50
2019-02-10T09:58:43.995Z,24.17
2019-02-10T09:59:48.017Z,20.77
2019-02-10T10:00:52.111Z,20.20
2019-02-10T10:01:56.230Z,17.20
2019-02-10T10:03:00.326Z,21.83
2019-02-10T10:04:04.366Z,18.97
2019-02-10T10:05:09.362Z,13.70
2019-02-10T10:06:13.367Z,12.77
2019-02-10T10:07:17.407Z,14.07
2019-02-10T10:08:21.396Z,17.03
2019-02-10T10:09:25.459Z,17.73
2019-02-10T10:10:29.463Z,21.30
2019-02-10T10:11:33.486Z,12.57
2019-02-10T10:12:37.517Z,17.10
2019-02-10T10:13:41.527Z,19.43
2019-02-10T10:14:45.516Z,22.10
2019-02-10T10:15:49.557Z,14.37
2019-02-10T10:16:53.553Z,12.93
2019-02-10T10:17:57.589Z,19.20
2019-02-10T10:19:01.680Z,21.57
2019-02-10T10:20:07.106Z,15.20
2019-02-10T10:21:11.228Z,19.90
2019-02-10T10:22:15.274Z,19.33
2019-02-10T10:23:19.419Z,19.87
2019-02-10T10:24:23.489Z,16.77
2019-02-10T10:25:27.528Z,13.07
2019-02-10T10:26:32.292Z,13.07
2019-02-10T10:27:37.675Z,16.20
2019-02-10T10:28:42.645Z,16.53
2019-02-10T10:29:46.672Z,15.90
2019-02-10T10:30:50.779Z,15.33
2019-02-10T10:31:54.861Z,16.67
2019-02-10T10:32:58.959Z,17.10
2019-02-10T10:34:04.128Z,23.37
2019-02-10T10:35:08.401Z,15.87
2019-02-10T10:36:12.489Z,17.70
2019-02-10T10:37:20.525Z,19.67
2019-02-10T10:38:24.531Z,12.23
2019-02-10T10:39:28.839Z,13.67
2019-02-10T10:40:32.861Z,15.40
2019-02-10T10:41:36.981Z,14.63
2019-02-10T10:42:41.213Z,21.13
2019-02-10T10:43:45.297Z,17.33
2019-02-10T10:44:49.452Z,19.17
2019-02-10T10:45:53.558Z,22.00
2019-02-10T10:46:57.872Z,18.27
2019-02-10T10:48:02.363Z,17.67
2019-02-10T10:49:06.541Z,16.87
2019-02-10T10:50:11.045Z,17.40
2019-02-10T10:51:15.149Z,19.53
2019-02-10T10:52:19.356Z,14.40
2019-02-10T10:53:23.642Z,15.37
2019-02-10T10:54:27.765Z,19.33
2019-02-10T10:55:31.875Z,21.60
2019-02-10T10:56:36.550Z,10.17
2019-02-10T10:57:41.907Z,15.30
2019-02-10T10:58:46.609Z,16.67
2019-02-10T10:59:50.747Z,16.80
2019-02-10T11:00:54.892Z,18.93
2019-02-10T11:01:58.945Z,15.40
2019-02-10T11:03:03.133Z,19.03
2019-02-10T11:04:07.179Z,17.37
2019-02-10T11:05:11.361Z,9.90
2019-02-10T11:06:15.473Z,21.83
2019-02-10T11:07:20.071Z,19.40
2019-02-10T11:08:24.477Z,13.80
2019-02-10T11:09:35.427Z,15.13
2019-02-10T11:10:32.738Z,15.97
2019-02-10T11:11:36.755Z,21.33
2019-02-10T11:12:41.141Z,20.90
2019-02-10T11:13:45.247Z,15.37
2019-02-10T11:14:49.668Z,20.20
2019-02-10T11:15:53.954Z,23.23
2019-02-10T11:16:58.483Z,15.27
2019-02-10T11:18:02.788Z,15.73
2019-02-10T11:19:07.041Z,15.43
2019-02-10T11:20:11.481Z,11.63
2019-02-10T11:21:15.691Z,16.00
2019-02-10T11:22:19.760Z,14.73
2019-02-10T11:23:26.664Z,13.47
2019-02-10T11:24:31.055Z,13.10
2019-02-10T11:25:35.122Z,15.37
2019-02-10T11:26:45.577Z,17.47
2019-02-10T11:27:49.896Z,12.67
2019-02-10T11:28:54.082Z,18.47
2019-02-10T11:29:59.265Z,15.30
2019-02-10T11:31:03.368Z,15.77
2019-02-10T11:32:07.518Z,18.07
2019-02-10T11:33:12.938Z,12.83
2019-02-10T11:34:17.109Z,12.10
2019-02-10T11:35:22.198Z,20.30
2019-02-10T11:36:26.316Z,13.43
2019-02-10T11:37:31.174Z,14.50
2019-02-10T11:38:34.669Z,11.87
2019-02-10T11:39:43.537Z,15.77
2019-02-10T11:40:43.053Z,15.03
2019-02-10T11:41:47.069Z,14.10
2019-02-10T11:42:51.344Z,15.87
2019-02-10T11:43:55.433Z,18.70
2019-02-10T11:44:59.591Z,12.73
2019-02-10T11:46:03.793Z,15.53
2019-02-10T11:47:07.944Z,16.80
2019-02-10T11:48:12.106Z,13.80
2019-02-10T11:49:16.847Z,14.47
2019-02-10T11:50:20.992Z,15.60
2019-02-10T11:51:25.050Z,15.20
2019-02-10T11:52:29.480Z,10.27
2019-02-10T11:53:34.101Z,15.30
2019-02-10T11:54:38.846Z,17.70
2019-02-10T11:55:43.238Z,15.93
2019-02-10T11:56:47.437Z,10.40
2019-02-10T11:57:51.597Z,17.83
2019-02-10T11:58:55.898Z,12.67
2019-02-10T12:00:00.021Z,13.13
2019-02-10T12:01:04.261Z,12.13
2019-02-10T12:02:08.588Z,14.53
2019-02-10T12:03:12.840Z,10.10
2019-02-10T12:04:17.273Z,13.20
2019-02-10T12:05:21.648Z,10.10
2019-02-10T12:06:26.118Z,14.53
2019-02-10T12:07:30.485Z,15.37
2019-02-10T12:08:35.893Z,8.93
2019-02-10T12:09:38.940Z,11.60
2019-02-10T12:10:43.327Z,14.13
2019-02-10T12:11:47.955Z,13.23
2019-02-10T12:12:52.779Z,9.00
2019-02-10T12:13:57.323Z,8.87
2019-02-10T12:15:01.486Z,16.13
2019-02-10T12:16:05.855Z,26.53
2019-02-10T12:17:10.123Z,12.17
2019-02-10T12:18:14.421Z,14.30
2019-02-10T12:19:18.848Z,18.40
2019-02-10T12:20:23.377Z,14.20
2019-02-10T12:21:27.587Z,11.60
2019-02-10T12:22:31.709Z,8.53
2019-02-10T12:23:35.935Z,16.20
2019-02-10T12:24:40.240Z,12.43
2019-02-10T12:25:44.456Z,15.53
2019-02-10T12:26:48.716Z,9.83
2019-02-10T12:27:52.873Z,9.20
2019-02-10T12:28:56.990Z,11.30
2019-02-10T12:30:02.813Z,11.30
2019-02-10T12:31:11.833Z,14.13
2019-02-10T12:32:15.965Z,12.47
2019-02-10T12:33:20.291Z,16.10
2019-02-10T12:34:25.187Z,19.13
2019-02-10T12:35:29.490Z,17.23
2019-02-10T12:36:33.818Z,12.50
2019-02-10T12:37:38.253Z,10.30
2019-02-10T12:38:42.680Z,16.07
2019-02-10T12:39:47.157Z,10.87
2019-02-10T12:40:51.376Z,11.83
2019-02-10T12:41:55.474Z,12.83
2019-02-10T12:42:59.730Z,9.10
2019-02-10T12:44:03.893Z,13.90
2019-02-10T12:45:08.500Z,12.77
2019-02-10T12:46:12.934Z,13.83
2019-02-10T12:47:18.427Z,12.07
2019-02-10T12:48:23.202Z,16.73
2019-02-10T12:49:28.068Z,15.40
2019-02-10T12:50:32.199Z,10.80
2019-02-10T12:51:36.244Z,14.70
2019-02-10T12:52:40.588Z,12.30
2019-02-10T12:53:44.810Z,8.83
2019-02-10T12:54:48.997Z,9.33
2019-02-10T12:55:53.158Z,13.43
2019-02-10T12:56:57.318Z,11.97
2019-02-10T12:58:01.592Z,13.43
2019-02-10T12:59:07.543Z,11.47
2019-02-10T13:00:13.963Z,17.63
2019-02-10T13:01:18.808Z,20.97
2019-02-10T13:02:23.019Z,14.37
2019-02-10T13:03:27.217Z,11.67
2019-02-10T13:04:31.352Z,13.97
2019-02-10T13:05:35.537Z,16.17
2019-02-10T13:06:39.780Z,14.27
2019-02-10T13:07:44.172Z,8.80
2019-02-10T13:08:49.163Z,12.33
2019-02-10T13:09:53.311Z,7.20
2019-02-10T13:10:57.656Z,11.40
2019-02-10T13:12:02.781Z,12.27
2019-02-10T13:13:08.688Z,15.00
2019-02-10T13:14:13.024Z,13.40
2019-02-10T13:15:17.225Z,13.93
2019-02-10T13:16:21.718Z,13.37
2019-02-10T13:17:26.013Z,10.17
2019-02-10T13:18:30.372Z,13.03
2019-02-10T13:19:35.141Z,15.27
2019-02-10T13:20:39.300Z,11.27
2019-02-10T13:21:44.398Z,17.60
2019-02-10T13:22:49.051Z,16.00
2019-02-10T13:23:53.150Z,16.27
2019-02-10T13:24:57.327Z,8.07
2019-02-10T13:26:01.479Z,13.90
2019-02-10T13:27:05.880Z,11.10
2019-02-10T13:28:09.911Z,9.77
2019-02-10T13:29:14.086Z,12.73
2019-02-10T13:30:18.320Z,13.47
2019-02-10T13:31:23.342Z,13.80
2019-02-10T13:32:27.379Z,10.00
2019-02-10T13:33:32.512Z,15.97
2019-02-10T13:34:36.666Z,9.27
2019-02-10T13:35:41.949Z,16.17
2019-02-10T13:36:46.040Z,13.53
2019-02-10T13:37:50.133Z,13.57
2019-02-10T13:38:54.231Z,10.53
2019-02-10T13:39:59.239Z,8.90
2019-02-10T13:41:03.333Z,13.30
2019-02-10T13:42:07.437Z,12.93
2019-02-10T13:43:11.566Z,13.80
2019-02-10T13:44:15.973Z,8.90
2019-02-10T13:45:21.348Z,13.07
2019-02-10T13:46:26.853Z,13.33
2019-02-10T13:47:31.034Z,11.20
2019-02-10T13:48:35.314Z,13.00
2019-02-10T13:49:39.466Z,10.97
2019-02-10T13:50:43.586Z,11.37
2019-02-10T13:51:47.854Z,11.97
2019-02-10T13:52:52.549Z,13.97
2019-02-10T13:53:57.469Z,12.17
2019-02-10T13:55:06.195Z,13.17
2019-02-10T13:56:10.340Z,9.33
2019-02-10T13:57:17.536Z,8.10
2019-02-10T13:58:22.045Z,15.13
2019-02-10T13:59:26.541Z,10.83
2019-02-10T14:00:31.468Z,16.50
2019-02-10T14:01:35.830Z,9.63
2019-02-10T14:02:40.314Z,16.87
2019-02-10T14:03:44.381Z,10.93
2019-02-10T14:04:48.454Z,8.70
2019-02-10T14:05:52.610Z,12.53
2019-02-10T14:06:57.630Z,12.57
2019-02-10T14:08:01.949Z,12.07
2019-02-10T14:09:07.068Z,11.03
2019-02-10T14:10:11.830Z,9.30
2019-02-10T14:11:15.928Z,16.33
2019-02-10T14:12:20.056Z,9.60
2019-02-10T14:13:24.327Z,15.07
2019-02-10T14:14:28.461Z,8.07
2019-02-10T14:15:32.680Z,9.37
2019-02-10T14:16:37.575Z,13.17
2019-02-10T14:17:41.719Z,10.30
2019-02-10T14:18:45.826Z,12.63
2019-02-10T14:19:50.033Z,12.00
2019-02-10T14:20:54.289Z,13.07
2019-02-10T14:21:58.437Z,13.83
2019-02-10T14:23:02.523Z,8.27
2019-02-10T14:24:06.697Z,12.40
2019-02-10T14:25:10.884Z,12.73
2019-02-10T14:26:15.012Z,8.53
2019-02-10T14:27:19.630Z,10.30
2019-02-10T14:28:23.944Z,15.10
2019-02-10T14:29:28.241Z,10.30
2019-02-10T14:30:32.423Z,14.30
2019-02-10T14:31:36.551Z,11.37
2019-02-10T14:32:40.617Z,7.90
2019-02-10T14:33:45.241Z,11.93
2019-02-10T14:34:50.198Z,9.67
2019-02-10T14:35:54.376Z,12.03
2019-02-10T14:36:58.511Z,7.73
2019-02-10T14:38:02.702Z,6.93
2019-02-10T14:39:07.634Z,9.37
2019-02-10T14:40:11.788Z,10.20
2019-02-10T14:41:15.971Z,8.23